Terminal Aerodrome Forecast
Issued by NWS Tulsa, OK

Home | Current Version | Previous Version | Text Only | Print | Product List | Glossary Off
Versions: 1 2 3 4 5 6 7 8 9 10 11 12 13 14 15 16

598
FTUS44 KTSA 260520
TAFFSM
TAF
KFSM 260520Z 2606/2706 VRB03KT P6SM SCT045
      TEMPO 2610/2614 4SM BR
     FM261600 12007KT P6SM SCT250
     FM270100 10010KT P6SM VCTS BKN060CB PROB30 2702/2705 3SM TSRA
      BKN035CB=

USA.gov is the U.S. government's official web portal to all federal, state and local government web resources and services.